Time;durP1;ratioP1;P1;durP2;ratioP2;P2;SDS_P1;SDS_P2;PMS_P1;PMS_P2;Temp;Humidity;BMP_temperature;BMP_pressure;BME280_temperature;BME280_humidity;BME280_pressure;Samples;Min_cycle;Max_cycle;Signal;HPM_P1;HPM_P2
2022/03/06 00:00:18;;;;;;;27.30;15.68;;;;;;;-0.91;65.13;100133.97;4968968;28;20122;-75
2022/03/06 00:02:43;;;;;;;26.08;15.88;;;;;;;-0.96;65.11;100133.97;4951280;28;20037;-75
2022/03/06 00:05:09;;;;;;;25.20;13.38;;;;;;;-0.99;65.40;100135.66;4969134;28;20513;-75
2022/03/06 00:07:34;;;;;;;22.77;14.20;;;;;;;-1.01;64.46;100135.69;4969585;28;20045;-75
2022/03/06 00:10:00;;;;;;;28.73;13.95;;;;;;;-0.97;64.55;100140.00;4968952;28;20119;-74
2022/03/06 00:12:25;;;;;;;29.25;16.38;;;;;;;-0.94;65.03;100141.72;4963418;28;20031;-75
2022/03/06 00:14:51;;;;;;;23.25;14.13;;;;;;;-0.96;64.53;100140.84;4967788;28;20078;-75
2022/03/06 00:17:16;;;;;;;18.98;12.38;;;;;;;-0.97;64.26;100136.53;4963513;28;20158;-75
2022/03/06 00:19:41;;;;;;;19.48;11.13;;;;;;;-0.98;64.56;100137.41;4948763;28;20045;-76
2022/03/06 00:22:07;;;;;;;22.50;14.20;;;;;;;-0.98;64.99;100134.81;4967409;28;20035;-76
2022/03/06 00:24:32;;;;;;;21.05;12.95;;;;;;;-1.05;64.98;100139.09;4969215;28;20947;-76
2022/03/06 00:26:58;;;;;;;23.33;13.55;;;;;;;-1.09;65.26;100135.63;4969105;28;20058;-76
2022/03/06 00:29:23;;;;;;;27.27;15.27;;;;;;;-1.14;65.84;100133.88;4970743;28;20034;-75
2022/03/06 00:31:49;;;;;;;23.83;15.13;;;;;;;-1.21;65.79;100130.41;4969903;28;20042;-75
2022/03/06 00:34:14;;;;;;;28.95;14.88;;;;;;;-1.26;66.03;100128.66;4971858;28;20380;-75
2022/03/06 00:36:39;;;;;;;29.83;15.48;;;;;;;-1.25;66.17;100126.09;4972222;28;20497;-75
2022/03/06 00:39:05;;;;;;;22.27;12.60;;;;;;;-1.24;65.94;100134.72;4939088;28;20593;-75
2022/03/06 00:41:31;;;;;;;24.27;12.02;;;;;;;-1.21;66.26;100125.22;4954253;28;20034;-75
2022/03/06 00:43:56;;;;;;;22.35;12.40;;;;;;;-1.20;66.01;100133.88;4972742;28;20038;-76
2022/03/06 00:46:22;;;;;;;22.23;12.93;;;;;;;-1.17;65.55;100133.88;4972358;28;20042;-76
2022/03/06 00:48:48;;;;;;;17.42;10.85;;;;;;;-1.19;65.28;100133.88;4971845;28;20035;-75
2022/03/06 00:51:14;;;;;;;20.35;11.25;;;;;;;-1.20;65.17;100136.47;4971218;28;20491;-75
2022/03/06 00:53:40;;;;;;;25.50;14.27;;;;;;;-1.21;65.18;100137.31;4972024;28;20088;-75
2022/03/06 00:56:05;;;;;;;21.05;10.93;;;;;;;-1.19;65.09;100136.47;4972615;28;20039;-76
2022/03/06 00:58:31;;;;;;;18.17;10.65;;;;;;;-1.19;65.28;100138.19;4972132;28;20114;-76
2022/03/06 01:00:56;;;;;;;20.58;11.88;;;;;;;-1.16;64.36;100133.88;4963815;28;20561;-75
2022/03/06 01:03:22;;;;;;;22.98;11.52;;;;;;;-1.22;64.73;100135.59;4969865;28;20142;-74
2022/03/06 01:05:48;;;;;;;18.63;11.45;;;;;;;-1.22;64.33;100128.69;4969914;28;20031;-74
2022/03/06 01:08:13;;;;;;;25.67;12.55;;;;;;;-1.22;64.61;100138.19;4970290;28;20619;-73
2022/03/06 01:10:41;;;;;;;25.23;11.98;;;;;;;-1.18;64.34;100139.91;4952635;28;20083;-74
2022/03/06 01:13:08;;;;;;;21.80;12.25;;;;;;;-1.17;64.48;100139.06;4969806;28;20050;-74
2022/03/06 01:15:33;;;;;;;25.50;12.55;;;;;;;-1.21;64.45;100145.94;4970300;28;20093;-74
2022/03/06 01:18:00;;;;;;;15.40;10.32;;;;;;;-1.17;64.81;100147.69;4952544;28;20502;-75
2022/03/06 01:20:26;;;;;;;19.60;11.10;;;;;;;-1.20;64.91;100149.41;4970097;28;20065;-75
2022/03/06 01:22:52;;;;;;;21.55;11.57;;;;;;;-1.21;65.36;100145.94;4953110;28;20054;-74
2022/03/06 01:25:18;;;;;;;22.08;12.60;;;;;;;-1.21;65.12;100139.91;4969657;28;20491;-75
2022/03/06 01:27:44;;;;;;;19.38;11.13;;;;;;;-1.22;65.11;100141.63;4952253;28;20031;-74
2022/03/06 01:30:11;;;;;;;21.65;13.27;;;;;;;-1.33;66.19;100140.69;4969903;28;20098;-74
2022/03/06 01:32:38;;;;;;;22.83;12.65;;;;;;;-1.43;66.16;100144.09;4951533;28;20047;-73
2022/03/06 01:35:05;;;;;;;19.60;12.52;;;;;;;-1.40;66.95;100146.72;4952231;28;20035;-73
2022/03/06 01:37:31;;;;;;;21.98;12.80;;;;;;;-1.38;66.75;100147.56;4969831;28;20045;-75
2022/03/06 01:39:56;;;;;;;23.20;12.85;;;;;;;-1.40;66.26;100146.72;4951868;28;20034;-74
2022/03/06 01:42:21;;;;;;;25.33;14.90;;;;;;;-1.42;66.28;100140.69;4969702;28;20035;-73
2022/03/06 01:44:50;;;;;;;16.77;10.57;;;;;;;-1.42;66.06;100146.72;4969762;28;20049;-76
2022/03/06 01:47:40;;;;;;;21.02;11.65;;;;;;;-1.35;65.09;100152.78;4969391;28;20027;-74
2022/03/06 01:50:12;;;;;;;21.33;13.05;;;;;;;-1.41;65.91;100147.56;4957485;28;20569;-76
2022/03/06 01:52:40;;;;;;;28.40;13.80;;;;;;;-1.47;65.98;100155.31;4952468;28;20037;-75
2022/03/06 01:55:05;;;;;;;27.42;16.15;;;;;;;-1.52;66.79;100155.28;4969582;28;20402;-75
2022/03/06 01:57:32;;;;;;;22.45;13.02;;;;;;;-1.57;66.65;100152.66;4968982;28;20030;-76
2022/03/06 01:59:59;;;;;;;26.02;15.82;;;;;;;-1.56;66.39;100159.53;4968845;28;20042;-75
2022/03/06 02:02:25;;;;;;;26.63;15.07;;;;;;;-1.56;66.58;100158.69;4944900;28;20043;-76
2022/03/06 02:04:50;;;;;;;24.50;14.05;;;;;;;-1.64;66.39;100168.13;4946002;28;20034;-76
2022/03/06 02:07:16;;;;;;;24.05;13.95;;;;;;;-1.69;66.99;100164.66;4942081;28;20045;-76
2022/03/06 02:09:41;;;;;;;23.10;15.00;;;;;;;-1.72;67.16;100168.06;4969617;28;20050;-76
2022/03/06 02:12:22;;;;;;;19.60;12.45;;;;;;;-1.73;66.93;100159.44;4919847;28;20105;-75
2022/03/06 02:14:51;;;;;;;24.15;14.05;;;;;;;-1.74;66.99;100155.13;4919690;28;20517;-74
2022/03/06 02:17:17;;;;;;;22.92;13.88;;;;;;;-1.80;67.69;100154.22;4968753;28;20486;-74
2022/03/06 02:19:55;;;;;;;22.80;12.52;;;;;;;-1.86;67.91;100151.59;4951648;28;20035;-74
2022/03/06 02:22:22;;;;;;;23.60;12.13;;;;;;;-1.83;67.78;100154.22;4945098;28;20049;-75
2022/03/06 02:24:48;;;;;;;20.38;12.73;;;;;;;-1.83;68.55;100152.47;4920692;28;20529;-75
2022/03/06 02:27:13;;;;;;;21.08;12.15;;;;;;;-1.80;67.76;100159.38;4927431;28;20034;-76
2022/03/06 02:29:40;;;;;;;18.38;11.73;;;;;;;-1.79;67.51;100149.06;4969237;28;20035;-74
2022/03/06 02:32:08;;;;;;;14.23;9.15;;;;;;;-1.76;67.17;100154.25;4919719;28;20256;-75
2022/03/06 02:34:34;;;;;;;20.65;10.27;;;;;;;-1.69;67.57;100146.56;4921730;28;20043;-76
2022/03/06 02:37:00;;;;;;;17.85;11.27;;;;;;;-1.70;67.34;100160.31;4945712;28;20039;-76
2022/03/06 02:39:26;;;;;;;19.23;12.18;;;;;;;-1.73;67.40;100153.41;4969602;28;20113;-76
2022/03/06 02:41:51;;;;;;;22.15;13.07;;;;;;;-1.80;67.49;100161.97;4945123;28;20039;-76
2022/03/06 02:44:17;;;;;;;21.88;12.32;;;;;;;-1.84;67.10;100158.50;4895297;28;20049;-75
2022/03/06 02:46:45;;;;;;;21.23;12.13;;;;;;;-1.86;67.57;100165.38;4895423;28;20105;-75
2022/03/06 02:49:13;;;;;;;18.20;12.05;;;;;;;-1.85;68.04;100161.06;4968120;28;20055;-75
2022/03/06 02:51:38;;;;;;;23.52;13.63;;;;;;;-1.88;67.61;100161.06;4967264;28;20031;-75
2022/03/06 02:54:04;;;;;;;23.83;11.82;;;;;;;-1.90;67.32;100160.19;4895356;28;20072;-76
2022/03/06 02:56:29;;;;;;;16.80;11.15;;;;;;;-1.88;67.59;100158.47;4878796;28;20045;-76
2022/03/06 02:58:54;;;;;;;21.83;11.80;;;;;;;-1.86;67.73;100170.56;4927346;28;20081;-74
2022/03/06 03:01:20;;;;;;;19.98;10.85;;;;;;;-1.90;67.99;100160.19;4966974;28;20057;-74
2022/03/06 03:03:46;;;;;;;20.70;10.48;;;;;;;-1.93;68.24;100163.59;4929846;28;20133;-75
2022/03/06 03:06:11;;;;;;;18.73;10.82;;;;;;;-1.92;67.45;100167.91;4875215;28;20125;-76
2022/03/06 03:08:37;;;;;;;19.40;12.18;;;;;;;-2.00;68.49;100162.69;4903246;28;20027;-76
2022/03/06 03:11:02;;;;;;;21.45;13.02;;;;;;;-2.05;67.92;100156.63;4967401;28;20034;-75
2022/03/06 03:13:27;;;;;;;17.98;11.98;;;;;;;-2.10;68.88;100165.19;4969093;28;20759;-75
2022/03/06 03:15:54;;;;;;;21.33;10.73;;;;;;;-2.08;68.57;100169.53;4895391;28;20097;-75
2022/03/06 03:18:19;;;;;;;17.58;10.63;;;;;;;-2.01;67.45;100170.44;4879898;28;20126;-76
2022/03/06 03:20:45;;;;;;;17.65;10.75;;;;;;;-2.08;68.50;100176.41;4946096;28;20054;-76
2022/03/06 03:23:10;;;;;;;18.50;9.50;;;;;;;-2.01;68.04;100184.22;4964245;28;20042;-76
2022/03/06 03:25:35;;;;;;;15.80;9.05;;;;;;;-1.95;67.21;100175.66;4918847;28;20066;-76
2022/03/06 03:28:01;;;;;;;13.52;7.93;;;;;;;-1.92;66.11;100169.63;4898025;28;20788;-77
2022/03/06 03:30:26;;;;;;;18.33;9.38;;;;;;;-1.90;65.83;100178.25;4920770;28;20623;-76
2022/03/06 03:32:52;;;;;;;15.23;9.95;;;;;;;-1.91;67.18;100182.56;4967867;28;20105;-74
2022/03/06 03:35:17;;;;;;;16.80;9.75;;;;;;;-1.89;66.99;100183.47;4945464;28;20130;-76
2022/03/06 03:37:42;;;;;;;17.75;9.27;;;;;;;-1.88;66.63;100186.91;4895816;28;20034;-75
2022/03/06 03:40:08;;;;;;;13.65;8.43;;;;;;;-1.92;66.83;100182.56;4896647;28;20035;-76
2022/03/06 03:42:34;;;;;;;17.70;10.43;;;;;;;-1.95;67.00;100189.41;4971092;28;20555;-75
2022/03/06 03:44:59;;;;;;;21.30;11.00;;;;;;;-1.99;66.94;100195.44;4971959;28;20442;-74
2022/03/06 03:47:25;;;;;;;25.73;13.55;;;;;;;-1.98;67.33;100196.28;4899177;28;20039;-76
2022/03/06 03:49:50;;;;;;;18.73;10.18;;;;;;;-2.05;67.90;100194.50;4899209;28;20040;-75
2022/03/06 03:52:15;;;;;;;19.45;11.10;;;;;;;-2.16;67.59;100195.28;4957038;28;20058;-76
2022/03/06 03:54:41;;;;;;;19.38;11.90;;;;;;;-2.19;68.01;100202.13;4987688;28;20053;-76
2022/03/06 03:57:06;;;;;;;22.40;12.30;;;;;;;-2.23;68.43;100203.84;4918339;28;20054;-76
2022/03/06 03:59:32;;;;;;;17.17;10.80;;;;;;;-2.22;69.15;100199.53;4902601;28;20561;-75
2022/03/06 04:01:57;;;;;;;20.33;10.70;;;;;;;-2.24;69.02;100204.69;4919673;28;20041;-75
2022/03/06 04:04:22;;;;;;;17.50;10.85;;;;;;;-2.23;68.41;100210.72;4971817;28;20410;-75
2022/03/06 04:06:48;;;;;;;20.65;11.60;;;;;;;-2.22;68.77;100208.13;4931479;28;20085;-75
2022/03/06 04:09:13;;;;;;;18.75;10.23;;;;;;;-2.26;69.28;100206.38;4882775;28;20042;-76
2022/03/06 04:11:39;;;;;;;15.80;9.85;;;;;;;-2.28;68.95;100210.66;4895151;28;20050;-75
2022/03/06 04:14:04;;;;;;;16.80;11.20;;;;;;;-2.38;69.80;100212.28;4971507;28;20043;-75
2022/03/06 04:16:29;;;;;;;18.95;11.00;;;;;;;-2.46;70.45;100210.47;4971815;28;20046;-75
2022/03/06 04:18:54;;;;;;;22.00;12.43;;;;;;;-2.50;69.90;100212.16;4922904;28;20067;-75
2022/03/06 04:21:20;;;;;;;21.20;12.15;;;;;;;-2.50;69.64;100217.34;4894475;28;20053;-74
2022/03/06 04:23:46;;;;;;;16.63;9.45;;;;;;;-2.39;69.51;100220.00;4922199;28;20110;-75
2022/03/06 04:26:11;;;;;;;20.25;11.07;;;;;;;-2.33;68.95;100222.69;4970488;28;20064;-76
2022/03/06 04:28:37;;;;;;;17.63;10.85;;;;;;;-2.30;68.80;100227.84;4930375;28;20041;-76
2022/03/06 04:31:02;;;;;;;25.00;12.13;;;;;;;-2.29;69.34;100232.19;4897335;28;20051;-75
2022/03/06 04:33:28;;;;;;;14.43;10.57;;;;;;;-2.30;69.35;100233.03;4898274;28;20055;-75
2022/03/06 04:35:53;;;;;;;22.88;11.52;;;;;;;-2.29;69.41;100228.72;4970447;28;20109;-76
2022/03/06 04:38:19;;;;;;;20.15;11.57;;;;;;;-2.26;69.90;100223.59;4971927;28;20534;-75
2022/03/06 04:40:46;;;;;;;23.25;11.73;;;;;;;-2.22;69.17;100233.09;4897621;28;20051;-75
2022/03/06 04:43:12;;;;;;;17.92;10.10;;;;;;;-2.18;69.37;100238.31;4896884;28;20593;-75
2022/03/06 04:45:37;;;;;;;15.60;10.48;;;;;;;-2.15;68.51;100237.47;4946023;28;20062;-76
2022/03/06 04:48:03;;;;;;;15.52;8.82;;;;;;;-2.16;68.04;100239.19;4970453;28;20035;-75
2022/03/06 04:50:29;;;;;;;18.83;11.88;;;;;;;-2.17;68.02;100237.47;4922063;28;20402;-75
2022/03/06 04:52:54;;;;;;;16.33;9.98;;;;;;;-2.17;67.71;100234.00;4896888;28;20085;-74
2022/03/06 04:55:19;;;;;;;18.38;10.80;;;;;;;-2.16;67.87;100234.03;4921552;28;20031;-76
2022/03/06 04:57:48;;;;;;;18.88;10.88;;;;;;;-2.14;68.25;100236.63;4970511;28;20150;-76
2022/03/06 05:00:15;;;;;;;17.10;10.43;;;;;;;-2.16;67.80;100236.63;4946263;28;20054;-75
2022/03/06 05:02:40;;;;;;;16.63;10.95;;;;;;;-2.15;68.50;100240.06;4896575;28;20081;-74
2022/03/06 05:05:06;;;;;;;21.85;11.57;;;;;;;-2.15;67.73;100234.88;4897265;28;20085;-76
2022/03/06 05:07:32;;;;;;;21.10;11.48;;;;;;;-2.11;67.73;100235.81;4970346;28;20035;-75
2022/03/06 05:09:57;;;;;;;15.60;10.07;;;;;;;-2.08;68.07;100244.44;4972021;28;20035;-75
2022/03/06 05:12:22;;;;;;;16.00;9.13;;;;;;;-2.03;67.06;100237.59;4932436;28;20047;-74
2022/03/06 05:14:48;;;;;;;16.50;10.25;;;;;;;-2.00;68.25;100236.75;4921087;28;20057;-75
2022/03/06 05:17:13;;;;;;;17.42;12.10;;;;;;;-1.94;68.30;100241.97;4946165;28;20085;-75
2022/03/06 05:19:39;;;;;;;16.23;9.63;;;;;;;-1.97;68.05;100240.25;4965400;28;20655;-74
2022/03/06 05:22:04;;;;;;;18.88;10.80;;;;;;;-2.04;68.01;100245.34;4945936;28;20794;-76
2022/03/06 05:24:29;;;;;;;17.08;11.57;;;;;;;-2.07;68.51;100238.41;4922035;28;20105;-76
2022/03/06 05:26:55;;;;;;;16.85;10.45;;;;;;;-2.02;68.57;100241.03;4930212;28;20549;-76
2022/03/06 05:29:20;;;;;;;18.10;10.90;;;;;;;-1.99;68.18;100241.94;4962355;28;20058;-76
2022/03/06 05:31:46;;;;;;;15.48;10.35;;;;;;;-1.95;68.22;100241.09;4920471;28;20046;-75
2022/03/06 05:34:11;;;;;;;15.05;9.35;;;;;;;-1.90;68.84;100248.03;4946830;28;20042;-77
2022/03/06 05:36:36;;;;;;;15.80;10.07;;;;;;;-1.88;67.78;100239.44;4921524;28;20035;-76
2022/03/06 05:39:02;;;;;;;16.15;8.90;;;;;;;-1.83;67.53;100242.06;4945892;28;20394;-75
2022/03/06 05:41:27;;;;;;;18.65;10.50;;;;;;;-1.77;67.97;100236.97;4944786;28;20046;-75
2022/03/06 05:43:53;;;;;;;17.02;9.30;;;;;;;-1.73;68.09;100244.72;4918255;28;20571;-76
2022/03/06 05:46:18;;;;;;;16.70;11.23;;;;;;;-1.71;67.64;100241.31;4926707;28;20431;-75
2022/03/06 05:48:43;;;;;;;20.05;11.68;;;;;;;-1.71;67.95;100246.47;4921762;28;20047;-76
2022/03/06 05:51:09;;;;;;;21.48;10.65;;;;;;;-1.75;67.67;100238.72;4969447;28;20050;-76
2022/03/06 05:53:35;;;;;;;19.00;11.50;;;;;;;-1.73;67.82;100246.44;4921601;28;20454;-76
2022/03/06 05:56:00;;;;;;;19.63;10.23;;;;;;;-1.66;67.76;100250.81;4896529;28;20042;-75
2022/03/06 05:58:26;;;;;;;18.58;11.02;;;;;;;-1.62;67.83;100262.06;4922006;28;20490;-75
2022/03/06 06:00:51;;;;;;;19.80;11.10;;;;;;;-1.58;67.82;100261.22;4948089;28;20066;-75
2022/03/06 06:03:16;;;;;;;20.20;11.93;;;;;;;-1.56;68.12;100272.44;4955543;28;20051;-74
2022/03/06 06:05:42;;;;;;;16.20;9.68;;;;;;;-1.49;67.37;100273.34;4936062;28;20546;-76
2022/03/06 06:08:07;;;;;;;14.85;9.35;;;;;;;-1.41;67.45;100272.53;4926325;28;20047;-75
2022/03/06 06:10:32;;;;;;;17.83;10.18;;;;;;;-1.31;66.46;100276.91;4925245;28;20035;-76
2022/03/06 06:12:58;;;;;;;21.10;10.95;;;;;;;-1.24;65.93;100275.25;4973189;28;20050;-76
2022/03/06 06:15:23;;;;;;;16.20;10.13;;;;;;;-1.19;65.75;100276.16;4929160;28;20046;-75
2022/03/06 06:17:49;;;;;;;15.52;9.52;;;;;;;-1.15;65.89;100275.31;4910508;28;20042;-76
2022/03/06 06:20:14;;;;;;;16.63;11.10;;;;;;;-1.11;66.36;100284.84;4916577;28;20046;-75
2022/03/06 06:22:39;;;;;;;19.95;12.57;;;;;;;-1.11;65.19;100295.19;4931213;28;20039;-75
2022/03/06 06:25:05;;;;;;;17.85;11.80;;;;;;;-1.11;64.96;100294.28;4946267;28;20034;-75
2022/03/06 06:27:30;;;;;;;19.20;11.07;;;;;;;-1.09;65.33;100301.22;4943124;28;20124;-75
2022/03/06 06:29:56;;;;;;;15.00;9.45;;;;;;;-1.07;65.41;100301.22;4897888;28;20446;-75
2022/03/06 06:32:22;;;;;;;17.80;11.88;;;;;;;-1.00;64.70;100305.59;4919289;28;20077;-75
2022/03/06 06:34:48;;;;;;;21.00;13.40;;;;;;;-0.90;64.48;100302.19;4918944;28;20039;-76
2022/03/06 06:37:14;;;;;;;23.00;13.63;;;;;;;-0.88;64.91;100310.84;4939053;28;20102;-75
2022/03/06 06:39:40;;;;;;;14.65;10.65;;;;;;;-0.84;64.56;100311.72;4920482;28;20403;-75
2022/03/06 06:42:06;;;;;;;17.50;11.95;;;;;;;-0.78;64.19;100309.16;4894954;28;20467;-74
2022/03/06 06:44:32;;;;;;;21.88;13.32;;;;;;;-0.77;65.07;100318.66;4920216;28;20039;-75
2022/03/06 06:46:58;;;;;;;19.10;11.18;;;;;;;-0.76;64.42;100309.19;4928162;28;20081;-75
2022/03/06 06:49:24;;;;;;;21.25;13.32;;;;;;;-0.75;64.56;100306.59;4929707;28;20073;-74
2022/03/06 06:51:49;;;;;;;24.67;15.15;;;;;;;-0.74;64.78;100320.38;4890922;28;20039;-74
2022/03/06 06:54:15;;;;;;;19.80;13.27;;;;;;;-0.68;64.86;100321.28;4901264;28;20133;-74
2022/03/06 06:56:41;;;;;;;22.58;14.98;;;;;;;-0.54;64.77;100323.97;4904590;28;20490;-73
2022/03/06 06:59:06;;;;;;;23.92;12.93;;;;;;;-0.45;64.20;100321.38;4912532;28;20046;-74
2022/03/06 07:01:32;;;;;;;22.33;10.63;;;;;;;-0.36;63.49;100330.09;4878294;28;20035;-74
2022/03/06 07:03:57;;;;;;;17.85;10.52;;;;;;;-0.26;62.85;100327.53;4899947;28;20073;-75
2022/03/06 07:06:22;;;;;;;18.98;11.25;;;;;;;-0.18;62.11;100330.13;4909453;28;20049;-75
2022/03/06 07:08:48;;;;;;;21.67;11.75;;;;;;;-0.17;61.69;100333.59;4940198;28;20046;-74
2022/03/06 07:11:13;;;;;;;16.67;10.57;;;;;;;-0.09;62.10;100347.44;4934488;28;20039;-75
2022/03/06 07:13:38;;;;;;;19.90;12.13;;;;;;;0.02;61.87;100343.16;4934471;28;20118;-74
2022/03/06 07:16:04;;;;;;;21.70;12.88;;;;;;;0.04;61.76;100346.63;4910331;28;20041;-75
2022/03/06 07:18:30;;;;;;;20.30;10.95;;;;;;;0.09;62.61;100350.06;4934745;28;20046;-74
2022/03/06 07:20:55;;;;;;;19.58;12.07;;;;;;;0.16;62.77;100356.16;4920937;28;20052;-75
2022/03/06 07:23:20;;;;;;;21.48;12.05;;;;;;;0.20;63.00;100357.91;4896340;28;20046;-75
2022/03/06 07:25:46;;;;;;;16.85;11.68;;;;;;;0.31;61.90;100355.31;4881028;28;20091;-75
2022/03/06 07:28:12;;;;;;;15.18;10.88;;;;;;;0.29;62.47;100357.88;4898214;28;20047;-74
2022/03/06 07:30:37;;;;;;;19.98;11.82;;;;;;;0.27;63.36;100356.16;4928537;28;20038;-75
2022/03/06 07:33:02;;;;;;;18.77;10.32;;;;;;;0.32;63.12;100362.22;4894240;28;20056;-75
2022/03/06 07:35:29;;;;;;;18.25;12.60;;;;;;;0.43;62.56;100370.91;4915459;28;20112;-75
2022/03/06 07:37:54;;;;;;;18.20;12.27;;;;;;;0.46;62.73;100367.44;4893120;28;20044;-76
2022/03/06 07:40:22;;;;;;;18.48;13.32;;;;;;;0.47;62.81;100370.03;4950294;28;20050;-75
2022/03/06 07:42:48;;;;;;;16.20;11.43;;;;;;;0.53;62.75;100371.78;4924489;28;20080;-75
2022/03/06 07:45:18;;;;;;;18.08;10.60;;;;;;;0.61;62.12;100385.59;4901334;28;20058;-75
2022/03/06 07:47:43;;;;;;;21.88;13.27;;;;;;;0.73;61.54;100372.63;4882797;28;20396;-77
2022/03/06 07:50:11;;;;;;;16.23;10.80;;;;;;;0.85;60.68;100376.97;4923365;28;20047;-76
2022/03/06 07:52:38;;;;;;;20.30;13.35;;;;;;;0.99;60.50;100374.38;4963305;28;20130;-76
2022/03/06 07:55:05;;;;;;;19.08;11.07;;;;;;;1.12;59.81;100380.44;4899849;28;20502;-75
2022/03/06 07:57:30;;;;;;;19.63;11.98;;;;;;;1.25;59.62;100382.13;4899527;28;20043;-77
2022/03/06 07:59:55;;;;;;;15.20;10.82;;;;;;;1.43;59.30;100379.50;4900551;28;20039;-76
2022/03/06 08:02:21;;;;;;;15.02;9.50;;;;;;;1.56;58.95;100376.88;4975992;28;20034;-75
2022/03/06 08:04:46;;;;;;;19.60;12.50;;;;;;;1.64;57.61;100382.91;4944627;28;20050;-75
2022/03/06 08:07:11;;;;;;;14.95;10.98;;;;;;;1.74;56.74;100383.75;4926079;28;20117;-75
2022/03/06 08:09:37;;;;;;;16.67;9.57;;;;;;;1.92;55.92;100378.47;4909675;28;20700;-75
2022/03/06 08:12:03;;;;;;;17.23;11.20;;;;;;;2.02;54.50;100384.47;4948082;28;20471;-76
2022/03/06 08:14:29;;;;;;;17.92;10.45;;;;;;;2.10;53.86;100380.97;4922527;28;20085;-75
2022/03/06 08:16:54;;;;;;;17.83;10.43;;;;;;;2.16;53.32;100377.47;4923569;28;20510;-75
2022/03/06 08:19:20;;;;;;;19.67;11.13;;;;;;;2.20;52.98;100386.13;4923418;28;20109;-76
2022/03/06 08:21:45;;;;;;;16.60;10.35;;;;;;;2.38;53.15;100382.56;4948167;28;20042;-75
2022/03/06 08:24:11;;;;;;;15.27;11.05;;;;;;;2.57;52.49;100378.97;4925080;28;20419;-75
2022/03/06 08:26:36;;;;;;;16.70;9.30;;;;;;;2.72;52.34;100381.44;4950078;28;20055;-75
2022/03/06 08:29:02;;;;;;;17.63;11.10;;;;;;;2.81;51.77;100383.13;4923424;28;20080;-76
2022/03/06 08:31:27;;;;;;;15.23;11.35;;;;;;;2.86;50.99;100380.50;4922759;28;20066;-75
2022/03/06 08:33:53;;;;;;;18.27;12.43;;;;;;;2.96;50.67;100384.75;4906713;28;20181;-74
2022/03/06 08:36:19;;;;;;;20.48;12.02;;;;;;;3.07;50.92;100388.09;4923602;28;20050;-75
2022/03/06 08:38:44;;;;;;;18.27;12.02;;;;;;;3.24;50.04;100390.56;4923232;28;20077;-75
2022/03/06 08:41:09;;;;;;;17.13;11.25;;;;;;;3.37;49.92;100393.91;4905755;28;20043;-75
2022/03/06 08:43:35;;;;;;;18.95;11.68;;;;;;;3.59;49.44;100395.44;4923184;28;20051;-76
2022/03/06 08:46:02;;;;;;;18.55;11.98;;;;;;;3.78;49.27;100392.59;4923341;28;20050;-75
2022/03/06 08:48:27;;;;;;;22.05;13.00;;;;;;;3.88;49.63;100391.59;4921390;28;20101;-75
2022/03/06 08:50:52;;;;;;;18.23;11.60;;;;;;;4.00;48.90;100387.97;4921785;28;20455;-76
2022/03/06 08:53:18;;;;;;;21.38;12.75;;;;;;;4.20;48.49;100387.72;4905248;28;20089;-77
2022/03/06 08:55:44;;;;;;;19.42;13.20;;;;;;;4.30;48.04;100394.53;4922801;28;20112;-76
2022/03/06 08:58:10;;;;;;;19.88;13.70;;;;;;;4.47;47.10;100403.00;4905887;28;20042;-75
2022/03/06 09:00:36;;;;;;;21.88;14.25;;;;;;;4.68;46.99;100394.00;4922195;28;20069;-73
2022/03/06 09:03:01;;;;;;;20.17;14.07;;;;;;;5.45;44.90;100392.69;4921508;28;20042;-75
2022/03/06 09:05:27;;;;;;;21.88;12.80;;;;;;;6.40;43.13;100390.78;4921918;28;20035;-73
2022/03/06 09:07:52;;;;;;;21.60;14.18;;;;;;;7.29;42.17;100395.66;4921395;28;20061;-76
2022/03/06 09:10:17;;;;;;;17.92;12.63;;;;;;;8.22;39.66;100393.94;4921486;28;20089;-76
2022/03/06 09:12:43;;;;;;;17.35;13.45;;;;;;;9.16;37.29;100389.25;4921479;28;20041;-76
2022/03/06 09:15:10;;;;;;;16.38;13.10;;;;;;;10.07;35.65;100390.38;4921855;28;20048;-76
2022/03/06 09:17:36;;;;;;;17.55;13.00;;;;;;;10.79;35.18;100388.53;4922041;28;20543;-78
2022/03/06 09:20:03;;;;;;;19.02;13.75;;;;;;;11.04;33.55;100394.50;4908964;28;20071;-76
2022/03/06 09:22:29;;;;;;;17.48;13.88;;;;;;;10.66;33.63;100398.72;4921951;28;20055;-76
2022/03/06 09:24:54;;;;;;;17.63;13.88;;;;;;;10.94;33.51;100399.31;4920156;28;20105;-69
2022/03/06 09:27:19;;;;;;;19.55;14.50;;;;;;;11.01;33.84;100401.69;4924241;28;20038;-70
2022/03/06 09:29:45;;;;;;;18.10;13.23;;;;;;;11.32;33.48;100391.59;4970869;28;20663;-71
2022/03/06 09:32:10;;;;;;;25.70;15.40;;;;;;;11.35;33.13;100403.78;4970574;28;20045;-69
2022/03/06 09:34:35;;;;;;;22.10;16.20;;;;;;;11.55;33.21;100390.56;4972113;28;20043;-70
2022/03/06 09:37:01;;;;;;;18.35;14.32;;;;;;;11.93;32.73;100387.19;4974673;28;20031;-70
2022/03/06 09:39:26;;;;;;;19.60;14.55;;;;;;;12.37;31.75;100398.34;4974841;28;20122;-70
2022/03/06 09:41:54;;;;;;;24.73;15.48;;;;;;;12.50;31.09;100401.28;4967303;28;20030;-70
2022/03/06 09:44:24;;;;;;;21.15;14.73;;;;;;;12.19;31.69;100396.59;4971804;28;20055;-69
2022/03/06 09:46:52;;;;;;;22.85;16.60;;;;;;;12.43;31.89;100402.53;4971527;28;20042;-70
2022/03/06 09:49:18;;;;;;;21.27;16.65;;;;;;;11.78;31.90;100410.69;4971284;28;20043;-70
2022/03/06 09:51:43;;;;;;;20.88;15.25;;;;;;;11.47;32.27;100399.75;4969821;28;20038;-72
2022/03/06 09:54:10;;;;;;;21.05;15.00;;;;;;;11.74;31.90;100409.13;4969922;28;20134;-71
2022/03/06 09:56:36;;;;;;;18.80;15.70;;;;;;;11.74;31.81;100414.41;4971472;28;20372;-69
2022/03/06 09:59:02;;;;;;;19.40;14.85;;;;;;;12.02;31.43;100419.34;4969488;28;20043;-71
2022/03/06 10:01:28;;;;;;;21.77;15.95;;;;;;;11.81;31.43;100414.97;4960469;28;20038;-69
2022/03/06 10:03:55;;;;;;;21.77;14.90;;;;;;;11.25;32.63;100416.53;4952573;28;20046;-68
2022/03/06 10:06:23;;;;;;;23.70;14.77;;;;;;;11.11;33.01;100411.81;4967189;28;20113;-74
2022/03/06 10:09:02;;;;;;;22.50;14.07;;;;;;;11.15;33.04;100412.56;4946293;28;20031;-75
2022/03/06 10:11:28;;;;;;;22.65;16.33;;;;;;;10.91;33.96;100406.50;4967223;28;20042;-75
2022/03/06 10:13:53;;;;;;;20.42;15.80;;;;;;;11.33;33.45;100395.06;4967109;28;20587;-75
2022/03/06 10:16:20;;;;;;;26.05;20.73;;;;;;;11.57;33.35;100403.72;4965892;28;20086;-74
2022/03/06 10:18:54;;;;;;;21.55;13.93;;;;;;;11.37;33.06;100400.16;4968035;28;20043;-74
2022/03/06 10:21:20;;;;;;;23.88;15.48;;;;;;;11.53;31.68;100402.13;4967292;28;20039;-75
2022/03/06 10:24:08;;;;;;;22.27;14.20;;;;;;;11.47;31.29;100402.38;4976318;28;20053;-75
2022/03/06 10:26:36;;;;;;;18.30;14.45;;;;;;;12.30;30.86;100401.38;4965851;28;20059;-76
2022/03/06 10:29:05;;;;;;;16.75;12.60;;;;;;;12.52;28.31;100403.88;4949207;28;20251;-74
2022/03/06 10:31:33;;;;;;;19.55;14.70;;;;;;;12.16;29.92;100405.50;4965355;28;20039;-74
2022/03/06 10:34:07;;;;;;;17.60;13.52;;;;;;;12.36;29.58;100403.75;4949160;28;20038;-73
2022/03/06 10:36:51;;;;;;;17.95;13.32;;;;;;;12.86;26.91;100403.09;4966163;28;20039;-73
2022/03/06 10:39:18;;;;;;;17.15;13.07;;;;;;;12.96;27.50;100401.72;4966662;28;20460;-74
2022/03/06 10:41:49;;;;;;;16.85;12.13;;;;;;;12.94;27.65;100405.38;4965479;28;20033;-75
2022/03/06 10:44:16;;;;;;;16.50;13.70;;;;;;;12.39;28.94;100401.78;4948935;28;20062;-74
2022/03/06 10:46:42;;;;;;;17.08;13.40;;;;;;;11.87;29.48;100400.69;4966225;28;20043;-75
2022/03/06 10:49:14;;;;;;;21.20;13.18;;;;;;;11.77;28.68;100403.69;4966140;28;20062;-74
2022/03/06 10:51:48;;;;;;;17.10;11.40;;;;;;;11.14;30.25;100409.03;4967499;28;20339;-75
2022/03/06 10:54:15;;;;;;;18.17;12.43;;;;;;;10.58;30.85;100413.97;4966673;28;20585;-73
2022/03/06 10:56:47;;;;;;;15.75;12.20;;;;;;;10.47;31.51;100409.97;4945778;28;20035;-74
2022/03/06 10:59:14;;;;;;;20.42;13.32;;;;;;;10.42;31.72;100405.81;4947185;28;20118;-75
2022/03/06 11:01:39;;;;;;;16.52;12.10;;;;;;;9.62;31.07;100406.94;4946424;28;20494;-76
2022/03/06 11:04:06;;;;;;;17.60;13.23;;;;;;;9.64;31.65;100409.50;4956378;28;20125;-76
2022/03/06 11:06:42;;;;;;;16.40;10.75;;;;;;;9.43;30.54;100408.50;4967194;28;20034;-75